createdAt,value
2019-04-05T00:02:47.304Z,10.28
2019-04-05T00:07:50.560Z,9.86
2019-04-05T00:12:53.880Z,10.26
2019-04-05T00:17:57.155Z,10.34
2019-04-05T00:23:00.232Z,10.74
2019-04-05T00:28:03.421Z,10.66
2019-04-05T00:33:06.473Z,10.22
2019-04-05T00:38:09.820Z,10.06
2019-04-05T00:43:13.011Z,10.13
2019-04-05T00:48:16.272Z,10.75
2019-04-05T00:53:22.424Z,10.78
2019-04-05T00:58:25.529Z,10.69
2019-04-05T01:03:28.724Z,10.58
2019-04-05T01:08:31.940Z,11.18
2019-04-05T01:13:35.049Z,10.73
2019-04-05T01:18:38.305Z,10.76
2019-04-05T01:23:41.280Z,10.47
2019-04-05T01:28:44.485Z,10.37
2019-04-05T01:33:47.694Z,10.61
2019-04-05T01:38:50.816Z,10.68
2019-04-05T01:43:53.844Z,11.54
2019-04-05T01:48:57.018Z,11.76
2019-04-05T01:54:00.122Z,11.56
2019-04-05T01:59:03.427Z,10.94
2019-04-05T02:04:06.698Z,11.34
2019-04-05T02:09:09.901Z,11.05
2019-04-05T02:14:13.494Z,11.64
2019-04-05T02:19:16.671Z,11.30
2019-04-05T02:24:19.852Z,10.93
2019-04-05T02:29:23.004Z,11.13
2019-04-05T02:34:26.217Z,11.18
2019-04-05T02:39:29.243Z,10.86
2019-04-05T02:44:32.322Z,11.05
2019-04-05T02:49:35.483Z,10.96
2019-04-05T02:54:38.612Z,11.10
2019-04-05T02:59:41.891Z,10.28
2019-04-05T03:04:45.149Z,9.79
2019-04-05T03:09:48.292Z,9.29
2019-04-05T03:14:51.519Z,9.61
2019-04-05T03:19:54.731Z,9.37
2019-04-05T03:24:58.142Z,10.17
2019-04-05T03:30:01.280Z,9.89
2019-04-05T03:35:04.380Z,9.90
2019-04-05T03:40:07.391Z,9.45
2019-04-05T03:45:10.473Z,9.49
2019-04-05T03:50:13.680Z,8.72
2019-04-05T03:55:16.877Z,8.58
2019-04-05T04:00:20.268Z,9.34
2019-04-05T04:05:23.606Z,9.18
2019-04-05T04:10:26.791Z,9.33
2019-04-05T04:15:30.083Z,9.37
2019-04-05T04:20:33.182Z,9.50
2019-04-05T04:25:36.484Z,8.62
2019-04-05T04:30:39.462Z,9.13
2019-04-05T04:35:42.401Z,8.97
2019-04-05T04:40:45.744Z,8.51
2019-04-05T04:45:48.979Z,8.94
2019-04-05T04:50:52.221Z,9.16
2019-04-05T04:55:55.608Z,8.59
2019-04-05T05:00:58.779Z,9.04
2019-04-05T05:06:02.056Z,9.12
2019-04-05T05:11:14.387Z,8.45
2019-04-05T05:16:08.217Z,9.00
2019-04-05T05:21:11.459Z,8.89
2019-04-05T05:26:14.851Z,9.11
2019-04-05T05:31:18.656Z,8.35
2019-04-05T05:36:21.925Z,8.70
2019-04-05T05:41:25.352Z,8.85
2019-04-05T05:46:28.635Z,8.72
2019-04-05T05:51:32.085Z,8.41
2019-04-05T05:56:35.211Z,8.96
2019-04-05T06:01:38.768Z,8.61
2019-04-05T06:06:42.188Z,8.88
2019-04-05T06:11:45.255Z,8.77
2019-04-05T06:16:48.149Z,8.76
2019-04-05T06:21:50.958Z,8.88
2019-04-05T06:26:53.829Z,8.79
2019-04-05T06:31:57.172Z,8.97
2019-04-05T06:37:00.326Z,8.53
2019-04-05T06:42:04.380Z,8.98
2019-04-05T06:47:07.565Z,8.65
2019-04-05T06:52:10.883Z,8.38
2019-04-05T06:57:13.946Z,8.88
2019-04-05T07:02:18.557Z,8.91
2019-04-05T07:07:19.890Z,8.75
2019-04-05T07:12:23.319Z,8.70
2019-04-05T07:17:26.437Z,8.83
2019-04-05T07:22:37.262Z,8.55
2019-04-05T07:27:32.435Z,8.81
2019-04-05T07:32:35.713Z,8.20
2019-04-05T07:37:39.066Z,8.69
2019-04-05T07:42:42.276Z,8.31
2019-04-05T07:47:45.332Z,8.22
2019-04-05T07:52:48.586Z,8.10
2019-04-05T07:57:51.804Z,8.60
2019-04-05T08:02:55.902Z,8.26
2019-04-05T08:07:59.454Z,8.78
2019-04-05T08:13:02.353Z,8.62
2019-04-05T08:18:05.371Z,8.49
2019-04-05T08:23:08.145Z,8.50
2019-04-05T08:28:11.524Z,8.59
2019-04-05T08:33:14.895Z,8.72
2019-04-05T08:38:18.128Z,8.96
2019-04-05T08:43:21.310Z,8.72
2019-04-05T08:48:24.179Z,8.78
2019-04-05T08:53:27.119Z,8.66
2019-04-05T08:58:33.557Z,8.90
2019-04-05T09:03:33.663Z,9.02
2019-04-05T09:08:36.416Z,8.12
2019-04-05T09:13:39.085Z,9.01
2019-04-05T09:18:42.018Z,9.55
2019-04-05T09:23:45.174Z,8.46
2019-04-05T09:28:48.113Z,8.32
2019-04-05T09:33:51.504Z,8.10
2019-04-05T09:38:54.351Z,8.68
2019-04-05T09:43:57.732Z,8.90
2019-04-05T09:49:00.953Z,8.24
2019-04-05T09:54:04.141Z,8.54
2019-04-05T09:59:07.347Z,8.48
2019-04-05T10:04:10.869Z,8.51
2019-04-05T10:09:14.149Z,8.10
2019-04-05T10:14:17.112Z,8.49
2019-04-05T10:19:20.240Z,8.57
2019-04-05T10:24:23.206Z,7.89
2019-04-05T10:29:26.191Z,8.19
2019-04-05T10:34:29.365Z,7.89
2019-04-05T10:39:32.634Z,7.59
2019-04-05T10:44:36.096Z,8.10
2019-04-05T10:49:39.207Z,7.59
2019-04-05T10:54:42.160Z,7.70
2019-04-05T10:59:45.441Z,7.57
2019-04-05T11:04:48.564Z,7.39
2019-04-05T11:09:53.465Z,8.12
2019-04-05T11:14:54.605Z,7.64
2019-04-05T11:19:58.143Z,7.67
2019-04-05T11:25:01.501Z,7.41
2019-04-05T11:30:04.938Z,7.35
2019-04-05T11:35:08.361Z,6.69
2019-04-05T11:40:11.499Z,6.67
2019-04-05T11:45:14.685Z,6.97
2019-04-05T11:50:18.036Z,6.43
2019-04-05T11:55:21.354Z,6.81
2019-04-05T12:00:24.672Z,6.83
2019-04-05T12:05:28.143Z,6.51
2019-04-05T12:10:32.099Z,6.43
2019-04-05T12:15:35.766Z,6.53
2019-04-05T12:20:48.044Z,6.55
2019-04-05T12:25:39.493Z,5.98
2019-04-05T12:30:45.709Z,6.33
2019-04-05T12:35:45.926Z,6.36
2019-04-05T12:40:49.148Z,6.06
2019-04-05T12:45:52.754Z,6.03
2019-04-05T12:51:01.325Z,6.37
2019-04-05T12:55:59.539Z,6.14
2019-04-05T13:01:04.430Z,6.25
2019-04-05T13:06:07.585Z,5.95
2019-04-05T13:11:10.841Z,5.96
2019-04-05T13:16:14.427Z,5.50
2019-04-05T13:21:17.430Z,6.04
2019-04-05T13:26:20.786Z,5.72
2019-04-05T13:31:23.909Z,6.20
2019-04-05T13:36:26.994Z,5.94
2019-04-05T13:41:32.273Z,5.72
2019-04-05T13:46:33.121Z,5.69
2019-04-05T13:51:36.251Z,6.25
2019-04-05T13:56:41.403Z,6.02
2019-04-05T14:01:42.558Z,5.61
2019-04-05T14:06:45.966Z,5.91
2019-04-05T14:11:49.231Z,5.71
2019-04-05T14:16:54.060Z,5.86
2019-04-05T14:22:07.533Z,6.03
2019-04-05T14:26:57.683Z,5.27
2019-04-05T14:32:19.425Z,5.88
2019-04-05T14:37:04.067Z,6.05
2019-04-05T14:42:09.997Z,5.86
2019-04-05T14:47:10.426Z,5.44
2019-04-05T14:52:13.816Z,5.16
2019-04-05T14:57:17.177Z,5.18
2019-04-05T15:02:20.368Z,4.84
2019-04-05T15:07:23.774Z,4.96
2019-04-05T15:12:29.192Z,4.89
2019-04-05T15:17:29.985Z,5.24
2019-04-05T15:22:33.250Z,4.63
2019-04-05T15:27:36.404Z,4.85
2019-04-05T15:32:39.822Z,4.64
2019-04-05T15:37:42.869Z,4.37
2019-04-05T15:42:46.137Z,4.39
2019-04-05T15:47:52.371Z,4.48
2019-04-05T15:52:52.334Z,4.30
2019-04-05T15:57:55.494Z,4.11
2019-04-05T16:03:00.391Z,3.92
2019-04-05T16:08:02.255Z,3.97
2019-04-05T16:13:07.956Z,3.89
2019-04-05T16:18:08.338Z,3.37
2019-04-05T16:23:11.526Z,3.60
2019-04-05T16:28:14.641Z,3.55
2019-04-05T16:33:18.080Z,3.35
2019-04-05T16:38:21.370Z,3.16
2019-04-05T16:43:24.819Z,3.07
2019-04-05T16:48:28.018Z,3.26
2019-04-05T16:53:31.273Z,3.54
2019-04-05T16:58:34.750Z,3.44
2019-04-05T17:03:38.031Z,3.33
2019-04-05T17:08:41.202Z,3.36
2019-04-05T17:13:44.593Z,2.81
2019-04-05T17:18:48.042Z,3.13
2019-04-05T17:23:51.392Z,2.89
2019-04-05T17:28:54.687Z,2.91
2019-04-05T17:33:58.083Z,3.40
2019-04-05T17:39:03.518Z,3.59
2019-04-05T17:44:06.700Z,3.52
2019-04-05T17:49:09.768Z,3.38
2019-04-05T17:54:13.036Z,3.49
2019-04-05T17:59:16.422Z,3.17
2019-04-05T18:04:19.717Z,3.69
2019-04-05T18:09:23.257Z,3.54
2019-04-05T18:14:26.581Z,3.65
2019-04-05T18:19:29.916Z,3.47
2019-04-05T18:24:33.224Z,3.67
2019-04-05T18:29:36.546Z,3.92
2019-04-05T18:34:40.228Z,3.61
2019-04-05T18:39:43.391Z,5.08
2019-04-05T18:44:46.822Z,4.03
2019-04-05T18:50:02.165Z,3.58
2019-04-05T18:54:52.881Z,3.75
2019-04-05T18:59:56.348Z,3.98
2019-04-05T19:04:59.669Z,3.84
2019-04-05T19:10:03.316Z,3.66
2019-04-05T19:15:04.995Z,3.67
2019-04-05T19:20:08.364Z,3.97
2019-04-05T19:25:12.152Z,3.60
2019-04-05T19:50:27.056Z,4.63
2019-04-05T19:55:30.155Z,3.91
2019-04-05T20:00:33.885Z,16.18
2019-04-05T20:05:37.007Z,3.94
2019-04-05T20:10:38.852Z,3.83
2019-04-05T20:15:42.134Z,3.82
2019-04-05T20:20:45.696Z,3.67
2019-04-05T20:25:49.051Z,3.37
2019-04-05T20:30:52.263Z,3.63
2019-04-05T20:35:55.585Z,3.56
2019-04-05T20:40:58.618Z,3.75
2019-04-05T20:46:02.037Z,3.97
2019-04-05T20:51:05.375Z,4.27
2019-04-05T20:56:08.674Z,4.04
2019-04-05T21:01:11.916Z,3.73
2019-04-05T21:06:17.135Z,4.86
2019-04-05T21:11:17.796Z,4.32
2019-04-05T21:16:21.078Z,3.49
2019-04-05T21:21:24.473Z,3.81
2019-04-05T21:26:27.701Z,3.70
2019-04-05T21:31:30.743Z,3.55
2019-04-05T21:36:35.827Z,4.00
2019-04-05T21:41:39.029Z,4.43
2019-04-05T21:46:41.966Z,3.80
2019-04-05T21:51:45.095Z,5.50
2019-04-05T21:56:48.463Z,4.35
2019-04-05T22:01:51.822Z,5.15
2019-04-05T22:06:55.943Z,4.13
2019-04-05T22:11:59.183Z,4.33
2019-04-05T22:17:03.370Z,3.94
2019-04-05T22:22:06.585Z,4.39
2019-04-05T22:27:09.745Z,4.00
2019-04-05T22:32:13.525Z,4.04
2019-04-05T22:37:16.701Z,4.03
2019-04-05T22:42:18.659Z,3.68
2019-04-05T22:47:22.188Z,3.93
2019-04-05T22:52:25.432Z,3.65
2019-04-05T22:57:28.565Z,3.87
2019-04-05T23:02:32.215Z,3.41
2019-04-05T23:07:35.345Z,3.67
2019-04-05T23:12:38.665Z,3.65
2019-04-05T23:17:42.470Z,3.80
2019-04-05T23:22:45.953Z,3.95
2019-04-05T23:27:49.138Z,3.66
2019-04-05T23:32:52.517Z,3.21
2019-04-05T23:37:55.682Z,3.44
2019-04-05T23:42:59.323Z,3.97
2019-04-05T23:48:02.375Z,3.56
2019-04-05T23:53:05.696Z,3.63
2019-04-05T23:58:08.878Z,3.62
